sensor_id;sensor_type;location;lat;lon;timestamp;P1;durP1;ratioP1;P2;durP2;ratioP2
20245;SDS011;10281;54.406;18.556;2023-02-01T00:02:06;9.80;;;2.30;;
20245;SDS011;10281;54.406;18.556;2023-02-01T00:04:33;9.47;;;2.33;;
20245;SDS011;10281;54.406;18.556;2023-02-01T00:07:00;5.60;;;1.67;;
20245;SDS011;10281;54.406;18.556;2023-02-01T00:09:27;6.03;;;2.07;;
20245;SDS011;10281;54.406;18.556;2023-02-01T00:11:53;5.13;;;1.90;;
20245;SDS011;10281;54.406;18.556;2023-02-01T00:14:21;10.77;;;2.50;;
20245;SDS011;10281;54.406;18.556;2023-02-01T00:16:47;9.40;;;2.20;;
20245;SDS011;10281;54.406;18.556;2023-02-01T00:19:14;7.33;;;2.50;;
20245;SDS011;10281;54.406;18.556;2023-02-01T00:21:41;5.20;;;2.10;;
20245;SDS011;10281;54.406;18.556;2023-02-01T00:24:10;12.37;;;3.90;;
20245;SDS011;10281;54.406;18.556;2023-02-01T00:26:38;8.20;;;1.73;;
20245;SDS011;10281;54.406;18.556;2023-02-01T00:29:07;8.50;;;1.93;;
20245;SDS011;10281;54.406;18.556;2023-02-01T00:31:33;9.37;;;2.20;;
20245;SDS011;10281;54.406;18.556;2023-02-01T00:34:00;9.23;;;2.20;;
20245;SDS011;10281;54.406;18.556;2023-02-01T00:36:27;7.13;;;2.07;;
20245;SDS011;10281;54.406;18.556;2023-02-01T00:38:55;5.10;;;2.03;;
20245;SDS011;10281;54.406;18.556;2023-02-01T00:41:22;6.23;;;2.57;;
20245;SDS011;10281;54.406;18.556;2023-02-01T00:43:49;10.67;;;2.30;;
20245;SDS011;10281;54.406;18.556;2023-02-01T00:46:16;7.10;;;2.17;;
20245;SDS011;10281;54.406;18.556;2023-02-01T00:48:44;5.37;;;2.17;;
20245;SDS011;10281;54.406;18.556;2023-02-01T00:51:12;9.37;;;2.10;;
20245;SDS011;10281;54.406;18.556;2023-02-01T00:53:39;8.67;;;2.63;;
20245;SDS011;10281;54.406;18.556;2023-02-01T00:56:06;7.03;;;1.70;;
20245;SDS011;10281;54.406;18.556;2023-02-01T00:58:33;5.37;;;2.10;;
20245;SDS011;10281;54.406;18.556;2023-02-01T01:01:06;7.07;;;2.30;;
20245;SDS011;10281;54.406;18.556;2023-02-01T01:03:33;4.27;;;1.83;;
20245;SDS011;10281;54.406;18.556;2023-02-01T01:06:04;4.87;;;2.00;;
20245;SDS011;10281;54.406;18.556;2023-02-01T01:08:31;5.30;;;1.77;;
20245;SDS011;10281;54.406;18.556;2023-02-01T01:10:58;8.50;;;1.83;;
20245;SDS011;10281;54.406;18.556;2023-02-01T01:13:25;8.33;;;1.90;;
20245;SDS011;10281;54.406;18.556;2023-02-01T01:15:52;8.23;;;2.10;;
20245;SDS011;10281;54.406;18.556;2023-02-01T01:18:18;9.43;;;2.77;;
20245;SDS011;10281;54.406;18.556;2023-02-01T01:20:45;6.97;;;2.00;;
20245;SDS011;10281;54.406;18.556;2023-02-01T01:23:14;6.50;;;2.00;;
20245;SDS011;10281;54.406;18.556;2023-02-01T01:25:40;8.87;;;2.50;;
20245;SDS011;10281;54.406;18.556;2023-02-01T01:28:07;8.93;;;2.10;;
20245;SDS011;10281;54.406;18.556;2023-02-01T01:30:34;5.87;;;1.73;;
20245;SDS011;10281;54.406;18.556;2023-02-01T01:33:01;6.07;;;2.00;;
20245;SDS011;10281;54.406;18.556;2023-02-01T01:35:29;8.67;;;2.57;;
20245;SDS011;10281;54.406;18.556;2023-02-01T01:37:56;6.90;;;1.87;;
20245;SDS011;10281;54.406;18.556;2023-02-01T01:40:23;8.63;;;1.77;;
20245;SDS011;10281;54.406;18.556;2023-02-01T01:42:50;5.10;;;1.60;;
20245;SDS011;10281;54.406;18.556;2023-02-01T01:45:20;10.70;;;1.57;;
20245;SDS011;10281;54.406;18.556;2023-02-01T01:47:52;6.30;;;1.50;;
20245;SDS011;10281;54.406;18.556;2023-02-01T01:50:21;4.63;;;1.43;;
20245;SDS011;10281;54.406;18.556;2023-02-01T01:52:49;6.57;;;2.27;;
20245;SDS011;10281;54.406;18.556;2023-02-01T01:55:18;8.13;;;1.90;;
20245;SDS011;10281;54.406;18.556;2023-02-01T01:57:47;8.57;;;1.83;;
20245;SDS011;10281;54.406;18.556;2023-02-01T02:00:15;12.33;;;2.23;;
20245;SDS011;10281;54.406;18.556;2023-02-01T02:02:44;8.27;;;2.00;;
20245;SDS011;10281;54.406;18.556;2023-02-01T02:05:11;9.43;;;2.43;;
20245;SDS011;10281;54.406;18.556;2023-02-01T02:07:40;9.70;;;2.43;;
20245;SDS011;10281;54.406;18.556;2023-02-01T02:10:08;5.97;;;1.60;;
20245;SDS011;10281;54.406;18.556;2023-02-01T02:12:38;12.97;;;3.00;;
20245;SDS011;10281;54.406;18.556;2023-02-01T02:15:08;8.23;;;2.20;;
20245;SDS011;10281;54.406;18.556;2023-02-01T02:17:36;6.87;;;2.20;;
20245;SDS011;10281;54.406;18.556;2023-02-01T02:20:40;9.57;;;2.43;;
20245;SDS011;10281;54.406;18.556;2023-02-01T02:22:59;13.27;;;2.40;;
20245;SDS011;10281;54.406;18.556;2023-02-01T02:25:29;10.23;;;3.53;;
20245;SDS011;10281;54.406;18.556;2023-02-01T02:27:59;12.17;;;2.63;;
20245;SDS011;10281;54.406;18.556;2023-02-01T02:30:33;12.97;;;2.73;;
20245;SDS011;10281;54.406;18.556;2023-02-01T02:33:19;12.67;;;1.73;;
20245;SDS011;10281;54.406;18.556;2023-02-01T02:35:53;12.57;;;2.10;;
20245;SDS011;10281;54.406;18.556;2023-02-01T02:41:13;6.83;;;1.67;;
20245;SDS011;10281;54.406;18.556;2023-02-01T02:43:43;11.87;;;2.10;;
20245;SDS011;10281;54.406;18.556;2023-02-01T02:46:21;5.80;;;1.43;;
20245;SDS011;10281;54.406;18.556;2023-02-01T02:48:54;8.80;;;2.17;;
20245;SDS011;10281;54.406;18.556;2023-02-01T02:51:23;9.00;;;2.00;;
20245;SDS011;10281;54.406;18.556;2023-02-01T02:53:57;11.40;;;2.33;;
20245;SDS011;10281;54.406;18.556;2023-02-01T02:56:29;8.27;;;2.87;;
20245;SDS011;10281;54.406;18.556;2023-02-01T02:59:02;5.47;;;1.90;;
20245;SDS011;10281;54.406;18.556;2023-02-01T03:01:36;7.77;;;2.30;;
20245;SDS011;10281;54.406;18.556;2023-02-01T03:04:10;3.13;;;1.30;;
20245;SDS011;10281;54.406;18.556;2023-02-01T03:06:39;4.47;;;1.43;;
20245;SDS011;10281;54.406;18.556;2023-02-01T03:09:07;2.27;;;1.23;;
20245;SDS011;10281;54.406;18.556;2023-02-01T03:11:36;6.80;;;1.97;;
20245;SDS011;10281;54.406;18.556;2023-02-01T03:14:23;7.47;;;2.43;;
20245;SDS011;10281;54.406;18.556;2023-02-01T03:16:53;9.23;;;2.03;;
20245;SDS011;10281;54.406;18.556;2023-02-01T03:19:53;7.80;;;1.77;;
20245;SDS011;10281;54.406;18.556;2023-02-01T03:22:05;7.77;;;1.90;;
20245;SDS011;10281;54.406;18.556;2023-02-01T03:24:36;9.90;;;2.33;;
20245;SDS011;10281;54.406;18.556;2023-02-01T03:27:14;6.17;;;1.60;;
20245;SDS011;10281;54.406;18.556;2023-02-01T03:30:04;7.67;;;2.77;;
20245;SDS011;10281;54.406;18.556;2023-02-01T03:32:32;6.60;;;2.30;;
20245;SDS011;10281;54.406;18.556;2023-02-01T03:35:01;6.60;;;1.90;;
20245;SDS011;10281;54.406;18.556;2023-02-01T03:37:30;5.33;;;2.07;;
20245;SDS011;10281;54.406;18.556;2023-02-01T03:39:57;7.27;;;1.60;;
20245;SDS011;10281;54.406;18.556;2023-02-01T03:42:31;7.97;;;1.70;;
20245;SDS011;10281;54.406;18.556;2023-02-01T03:47:33;7.67;;;2.33;;
20245;SDS011;10281;54.406;18.556;2023-02-01T03:50:01;5.33;;;1.93;;
20245;SDS011;10281;54.406;18.556;2023-02-01T03:52:30;6.07;;;1.80;;
20245;SDS011;10281;54.406;18.556;2023-02-01T03:54:56;3.67;;;1.60;;
20245;SDS011;10281;54.406;18.556;2023-02-01T03:57:26;5.03;;;1.60;;
20245;SDS011;10281;54.406;18.556;2023-02-01T04:00:03;5.10;;;1.50;;
20245;SDS011;10281;54.406;18.556;2023-02-01T04:02:24;9.67;;;3.00;;
20245;SDS011;10281;54.406;18.556;2023-02-01T04:04:51;3.40;;;1.60;;
20245;SDS011;10281;54.406;18.556;2023-02-01T04:07:18;4.67;;;1.73;;
20245;SDS011;10281;54.406;18.556;2023-02-01T04:09:45;6.00;;;1.90;;
20245;SDS011;10281;54.406;18.556;2023-02-01T04:12:11;5.50;;;2.10;;
20245;SDS011;10281;54.406;18.556;2023-02-01T04:14:38;5.20;;;2.07;;
20245;SDS011;10281;54.406;18.556;2023-02-01T04:17:04;9.70;;;2.27;;
20245;SDS011;10281;54.406;18.556;2023-02-01T04:19:31;9.17;;;2.40;;
20245;SDS011;10281;54.406;18.556;2023-02-01T04:21:58;8.00;;;2.27;;
20245;SDS011;10281;54.406;18.556;2023-02-01T04:24:25;9.77;;;2.70;;
20245;SDS011;10281;54.406;18.556;2023-02-01T04:26:51;11.30;;;2.33;;
20245;SDS011;10281;54.406;18.556;2023-02-01T04:29:18;10.77;;;2.40;;
20245;SDS011;10281;54.406;18.556;2023-02-01T04:31:45;11.43;;;2.67;;
20245;SDS011;10281;54.406;18.556;2023-02-01T04:34:11;9.67;;;2.40;;
20245;SDS011;10281;54.406;18.556;2023-02-01T04:36:39;10.57;;;3.03;;
20245;SDS011;10281;54.406;18.556;2023-02-01T04:39:05;8.30;;;2.70;;
20245;SDS011;10281;54.406;18.556;2023-02-01T04:41:32;12.27;;;2.77;;
20245;SDS011;10281;54.406;18.556;2023-02-01T04:43:59;4.00;;;1.60;;
20245;SDS011;10281;54.406;18.556;2023-02-01T04:46:25;9.17;;;2.00;;
20245;SDS011;10281;54.406;18.556;2023-02-01T04:48:52;8.87;;;2.50;;
20245;SDS011;10281;54.406;18.556;2023-02-01T04:51:19;4.70;;;1.50;;
20245;SDS011;10281;54.406;18.556;2023-02-01T04:53:45;7.77;;;2.20;;
20245;SDS011;10281;54.406;18.556;2023-02-01T04:56:12;13.10;;;4.50;;
20245;SDS011;10281;54.406;18.556;2023-02-01T04:58:39;8.10;;;2.13;;
20245;SDS011;10281;54.406;18.556;2023-02-01T05:01:05;6.57;;;1.50;;
20245;SDS011;10281;54.406;18.556;2023-02-01T05:03:34;9.57;;;2.70;;
20245;SDS011;10281;54.406;18.556;2023-02-01T05:06:01;11.20;;;2.23;;
20245;SDS011;10281;54.406;18.556;2023-02-01T05:08:30;10.80;;;2.93;;
20245;SDS011;10281;54.406;18.556;2023-02-01T05:10:57;9.30;;;2.37;;
20245;SDS011;10281;54.406;18.556;2023-02-01T05:13:25;8.73;;;2.40;;
20245;SDS011;10281;54.406;18.556;2023-02-01T05:15:57;6.77;;;1.90;;
20245;SDS011;10281;54.406;18.556;2023-02-01T05:18:24;9.53;;;2.40;;
20245;SDS011;10281;54.406;18.556;2023-02-01T05:20:51;11.50;;;2.30;;
20245;SDS011;10281;54.406;18.556;2023-02-01T05:23:17;4.23;;;1.70;;
20245;SDS011;10281;54.406;18.556;2023-02-01T05:25:44;4.10;;;1.70;;
20245;SDS011;10281;54.406;18.556;2023-02-01T05:28:10;3.83;;;1.13;;
20245;SDS011;10281;54.406;18.556;2023-02-01T05:30:38;3.47;;;1.20;;
20245;SDS011;10281;54.406;18.556;2023-02-01T05:33:04;6.30;;;1.57;;
20245;SDS011;10281;54.406;18.556;2023-02-01T05:35:31;5.57;;;1.90;;
20245;SDS011;10281;54.406;18.556;2023-02-01T05:37:58;3.77;;;1.53;;
20245;SDS011;10281;54.406;18.556;2023-02-01T05:40:24;5.90;;;1.87;;
20245;SDS011;10281;54.406;18.556;2023-02-01T05:42:51;4.73;;;1.77;;
20245;SDS011;10281;54.406;18.556;2023-02-01T05:45:18;7.23;;;2.00;;
20245;SDS011;10281;54.406;18.556;2023-02-01T05:47:44;6.57;;;2.10;;
20245;SDS011;10281;54.406;18.556;2023-02-01T05:50:11;7.37;;;1.90;;
20245;SDS011;10281;54.406;18.556;2023-02-01T05:52:37;6.87;;;1.83;;
20245;SDS011;10281;54.406;18.556;2023-02-01T05:55:05;3.17;;;1.70;;
20245;SDS011;10281;54.406;18.556;2023-02-01T05:57:32;4.83;;;1.70;;
20245;SDS011;10281;54.406;18.556;2023-02-01T05:59:58;7.53;;;2.13;;
20245;SDS011;10281;54.406;18.556;2023-02-01T06:02:25;6.60;;;2.33;;
20245;SDS011;10281;54.406;18.556;2023-02-01T06:04:52;7.83;;;2.00;;
20245;SDS011;10281;54.406;18.556;2023-02-01T06:07:18;6.33;;;2.37;;
20245;SDS011;10281;54.406;18.556;2023-02-01T06:09:45;6.87;;;2.10;;
20245;SDS011;10281;54.406;18.556;2023-02-01T06:12:12;8.87;;;2.37;;
20245;SDS011;10281;54.406;18.556;2023-02-01T06:14:39;12.13;;;2.60;;
20245;SDS011;10281;54.406;18.556;2023-02-01T06:17:06;12.87;;;3.13;;
20245;SDS011;10281;54.406;18.556;2023-02-01T06:19:34;10.60;;;2.50;;
20245;SDS011;10281;54.406;18.556;2023-02-01T06:22:01;9.53;;;2.77;;
20245;SDS011;10281;54.406;18.556;2023-02-01T06:24:27;9.90;;;2.13;;
20245;SDS011;10281;54.406;18.556;2023-02-01T06:26:56;12.20;;;3.50;;
20245;SDS011;10281;54.406;18.556;2023-02-01T06:29:23;7.47;;;2.53;;
20245;SDS011;10281;54.406;18.556;2023-02-01T06:31:50;9.57;;;2.70;;
20245;SDS011;10281;54.406;18.556;2023-02-01T06:34:16;8.53;;;2.57;;
20245;SDS011;10281;54.406;18.556;2023-02-01T06:36:44;10.90;;;2.73;;
20245;SDS011;10281;54.406;18.556;2023-02-01T06:39:11;12.40;;;2.53;;
20245;SDS011;10281;54.406;18.556;2023-02-01T06:41:39;11.47;;;3.03;;
20245;SDS011;10281;54.406;18.556;2023-02-01T06:44:06;11.83;;;2.83;;
20245;SDS011;10281;54.406;18.556;2023-02-01T06:46:33;12.07;;;4.17;;
20245;SDS011;10281;54.406;18.556;2023-02-01T06:49:00;17.07;;;4.40;;
20245;SDS011;10281;54.406;18.556;2023-02-01T06:51:27;16.80;;;4.97;;
20245;SDS011;10281;54.406;18.556;2023-02-01T06:53:55;17.43;;;4.33;;
20245;SDS011;10281;54.406;18.556;2023-02-01T06:56:23;21.83;;;5.43;;
20245;SDS011;10281;54.406;18.556;2023-02-01T06:58:49;14.73;;;4.67;;
20245;SDS011;10281;54.406;18.556;2023-02-01T07:01:16;17.37;;;4.53;;
20245;SDS011;10281;54.406;18.556;2023-02-01T07:03:46;13.43;;;4.73;;
20245;SDS011;10281;54.406;18.556;2023-02-01T07:06:11;16.37;;;4.37;;
20245;SDS011;10281;54.406;18.556;2023-02-01T07:08:38;15.97;;;4.47;;
20245;SDS011;10281;54.406;18.556;2023-02-01T07:11:06;18.37;;;4.23;;
20245;SDS011;10281;54.406;18.556;2023-02-01T07:13:33;16.87;;;4.30;;
20245;SDS011;10281;54.406;18.556;2023-02-01T07:16:01;11.23;;;3.47;;
20245;SDS011;10281;54.406;18.556;2023-02-01T07:18:29;13.23;;;3.57;;
20245;SDS011;10281;54.406;18.556;2023-02-01T07:20:56;11.77;;;3.07;;
20245;SDS011;10281;54.406;18.556;2023-02-01T07:23:23;13.13;;;3.50;;
20245;SDS011;10281;54.406;18.556;2023-02-01T07:25:53;18.20;;;4.73;;
20245;SDS011;10281;54.406;18.556;2023-02-01T07:28:18;13.60;;;4.40;;
20245;SDS011;10281;54.406;18.556;2023-02-01T07:30:45;15.40;;;4.10;;
20245;SDS011;10281;54.406;18.556;2023-02-01T07:33:14;16.40;;;4.30;;
20245;SDS011;10281;54.406;18.556;2023-02-01T07:35:40;13.97;;;4.10;;
20245;SDS011;10281;54.406;18.556;2023-02-01T07:38:07;13.43;;;3.37;;
20245;SDS011;10281;54.406;18.556;2023-02-01T07:40:33;11.80;;;2.87;;
20245;SDS011;10281;54.406;18.556;2023-02-01T07:43:00;9.13;;;3.37;;
20245;SDS011;10281;54.406;18.556;2023-02-01T07:45:27;14.23;;;3.87;;
20245;SDS011;10281;54.406;18.556;2023-02-01T07:47:54;15.17;;;3.23;;
20245;SDS011;10281;54.406;18.556;2023-02-01T07:50:20;13.37;;;3.03;;
20245;SDS011;10281;54.406;18.556;2023-02-01T07:52:47;15.77;;;4.83;;
20245;SDS011;10281;54.406;18.556;2023-02-01T07:55:13;9.57;;;2.80;;
20245;SDS011;10281;54.406;18.556;2023-02-01T07:57:40;13.73;;;3.20;;
20245;SDS011;10281;54.406;18.556;2023-02-01T08:00:08;14.67;;;3.83;;
20245;SDS011;10281;54.406;18.556;2023-02-01T08:02:41;18.33;;;3.83;;
20245;SDS011;10281;54.406;18.556;2023-02-01T08:05:08;18.83;;;4.17;;
20245;SDS011;10281;54.406;18.556;2023-02-01T08:07:35;13.03;;;3.67;;
20245;SDS011;10281;54.406;18.556;2023-02-01T08:10:01;13.13;;;3.57;;
20245;SDS011;10281;54.406;18.556;2023-02-01T08:12:28;11.27;;;3.27;;
20245;SDS011;10281;54.406;18.556;2023-02-01T08:14:55;19.53;;;4.23;;
20245;SDS011;10281;54.406;18.556;2023-02-01T08:17:22;17.97;;;3.73;;
20245;SDS011;10281;54.406;18.556;2023-02-01T08:19:49;13.07;;;3.77;;
20245;SDS011;10281;54.406;18.556;2023-02-01T08:22:16;13.67;;;3.33;;
20245;SDS011;10281;54.406;18.556;2023-02-01T08:24:42;19.67;;;4.47;;
20245;SDS011;10281;54.406;18.556;2023-02-01T08:27:10;18.77;;;3.83;;
20245;SDS011;10281;54.406;18.556;2023-02-01T08:29:38;12.63;;;3.90;;
20245;SDS011;10281;54.406;18.556;2023-02-01T08:32:05;15.90;;;3.50;;
20245;SDS011;10281;54.406;18.556;2023-02-01T08:34:31;11.33;;;3.53;;
20245;SDS011;10281;54.406;18.556;2023-02-01T08:36:58;15.07;;;3.83;;
20245;SDS011;10281;54.406;18.556;2023-02-01T08:39:26;20.77;;;4.70;;
20245;SDS011;10281;54.406;18.556;2023-02-01T08:41:53;13.60;;;3.47;;
20245;SDS011;10281;54.406;18.556;2023-02-01T08:44:25;16.93;;;4.87;;
20245;SDS011;10281;54.406;18.556;2023-02-01T08:46:52;17.90;;;6.23;;
20245;SDS011;10281;54.406;18.556;2023-02-01T08:49:19;14.43;;;3.90;;
20245;SDS011;10281;54.406;18.556;2023-02-01T08:51:45;21.17;;;6.77;;
20245;SDS011;10281;54.406;18.556;2023-02-01T08:54:12;13.90;;;5.50;;
20245;SDS011;10281;54.406;18.556;2023-02-01T08:56:38;12.63;;;3.50;;
20245;SDS011;10281;54.406;18.556;2023-02-01T08:59:05;12.90;;;4.33;;
20245;SDS011;10281;54.406;18.556;2023-02-01T09:01:32;15.13;;;4.77;;
20245;SDS011;10281;54.406;18.556;2023-02-01T09:03:59;14.90;;;3.30;;
20245;SDS011;10281;54.406;18.556;2023-02-01T09:06:25;13.40;;;3.17;;
20245;SDS011;10281;54.406;18.556;2023-02-01T09:08:52;13.40;;;3.63;;
20245;SDS011;10281;54.406;18.556;2023-02-01T09:11:19;11.40;;;2.97;;
20245;SDS011;10281;54.406;18.556;2023-02-01T09:13:46;16.07;;;3.10;;
20245;SDS011;10281;54.406;18.556;2023-02-01T09:16:13;11.07;;;3.00;;
20245;SDS011;10281;54.406;18.556;2023-02-01T09:18:39;11.50;;;2.97;;
20245;SDS011;10281;54.406;18.556;2023-02-01T09:21:07;14.40;;;3.30;;
20245;SDS011;10281;54.406;18.556;2023-02-01T09:23:34;12.33;;;3.80;;
20245;SDS011;10281;54.406;18.556;2023-02-01T09:26:02;10.10;;;2.27;;
20245;SDS011;10281;54.406;18.556;2023-02-01T09:28:29;9.00;;;2.93;;
20245;SDS011;10281;54.406;18.556;2023-02-01T09:30:56;11.57;;;3.53;;
20245;SDS011;10281;54.406;18.556;2023-02-01T09:33:25;13.53;;;4.07;;
20245;SDS011;10281;54.406;18.556;2023-02-01T09:35:57;10.57;;;3.00;;
20245;SDS011;10281;54.406;18.556;2023-02-01T09:38:24;11.67;;;3.20;;
20245;SDS011;10281;54.406;18.556;2023-02-01T09:40:53;13.43;;;2.67;;
20245;SDS011;10281;54.406;18.556;2023-02-01T09:43:37;10.20;;;3.43;;
20245;SDS011;10281;54.406;18.556;2023-02-01T09:48:38;13.60;;;3.33;;
20245;SDS011;10281;54.406;18.556;2023-02-01T09:51:14;11.50;;;3.33;;
20245;SDS011;10281;54.406;18.556;2023-02-01T09:53:42;15.43;;;3.73;;
20245;SDS011;10281;54.406;18.556;2023-02-01T09:56:12;13.53;;;3.83;;
20245;SDS011;10281;54.406;18.556;2023-02-01T09:58:42;19.67;;;4.07;;
20245;SDS011;10281;54.406;18.556;2023-02-01T10:01:15;10.83;;;3.37;;
20245;SDS011;10281;54.406;18.556;2023-02-01T10:03:39;14.63;;;3.70;;
20245;SDS011;10281;54.406;18.556;2023-02-01T10:06:10;15.80;;;3.47;;
20245;SDS011;10281;54.406;18.556;2023-02-01T10:11:25;13.87;;;3.57;;
20245;SDS011;10281;54.406;18.556;2023-02-01T10:14:35;11.67;;;2.83;;
20245;SDS011;10281;54.406;18.556;2023-02-01T10:22:25;11.87;;;2.87;;
20245;SDS011;10281;54.406;18.556;2023-02-01T10:24:52;9.43;;;2.70;;
20245;SDS011;10281;54.406;18.556;2023-02-01T10:27:23;8.23;;;2.60;;
20245;SDS011;10281;54.406;18.556;2023-02-01T10:29:54;12.50;;;3.60;;
20245;SDS011;10281;54.406;18.556;2023-02-01T10:32:21;9.60;;;2.90;;
20245;SDS011;10281;54.406;18.556;2023-02-01T10:34:52;9.70;;;3.10;;
20245;SDS011;10281;54.406;18.556;2023-02-01T10:37:23;9.20;;;2.80;;
20245;SDS011;10281;54.406;18.556;2023-02-01T10:39:48;10.03;;;2.50;;
20245;SDS011;10281;54.406;18.556;2023-02-01T10:42:17;6.33;;;2.50;;
20245;SDS011;10281;54.406;18.556;2023-02-01T10:44:45;6.87;;;2.40;;
20245;SDS011;10281;54.406;18.556;2023-02-01T10:47:14;10.37;;;2.50;;
20245;SDS011;10281;54.406;18.556;2023-02-01T10:52:16;10.13;;;3.40;;
20245;SDS011;10281;54.406;18.556;2023-02-01T10:54:44;7.93;;;2.63;;
20245;SDS011;10281;54.406;18.556;2023-02-01T10:59:43;9.57;;;3.53;;
20245;SDS011;10281;54.406;18.556;2023-02-01T11:02:16;11.33;;;2.40;;
20245;SDS011;10281;54.406;18.556;2023-02-01T11:04:43;7.47;;;2.43;;
20245;SDS011;10281;54.406;18.556;2023-02-01T11:07:23;9.83;;;2.70;;
20245;SDS011;10281;54.406;18.556;2023-02-01T11:09:51;12.17;;;3.20;;
20245;SDS011;10281;54.406;18.556;2023-02-01T11:12:25;9.57;;;3.40;;
20245;SDS011;10281;54.406;18.556;2023-02-01T11:14:55;11.10;;;3.63;;
20245;SDS011;10281;54.406;18.556;2023-02-01T11:17:23;11.70;;;3.07;;
20245;SDS011;10281;54.406;18.556;2023-02-01T11:19:56;10.90;;;3.20;;
20245;SDS011;10281;54.406;18.556;2023-02-01T11:22:24;28.93;;;8.30;;
20245;SDS011;10281;54.406;18.556;2023-02-01T11:24:51;8.63;;;2.60;;
20245;SDS011;10281;54.406;18.556;2023-02-01T11:27:18;5.00;;;2.30;;
20245;SDS011;10281;54.406;18.556;2023-02-01T11:29:49;8.00;;;2.70;;
20245;SDS011;10281;54.406;18.556;2023-02-01T11:32:18;9.13;;;3.30;;
20245;SDS011;10281;54.406;18.556;2023-02-01T11:34:47;7.53;;;2.47;;
20245;SDS011;10281;54.406;18.556;2023-02-01T11:40:22;8.10;;;2.60;;
20245;SDS011;10281;54.406;18.556;2023-02-01T11:42:39;2.63;;;1.23;;
20245;SDS011;10281;54.406;18.556;2023-02-01T11:47:41;2.40;;;1.63;;
20245;SDS011;10281;54.406;18.556;2023-02-01T11:50:12;4.17;;;1.83;;
20245;SDS011;10281;54.406;18.556;2023-02-01T11:52:44;3.33;;;1.77;;
20245;SDS011;10281;54.406;18.556;2023-02-01T11:58:20;5.87;;;2.60;;
20245;SDS011;10281;54.406;18.556;2023-02-01T12:00:34;3.27;;;1.37;;
20245;SDS011;10281;54.406;18.556;2023-02-01T12:03:11;5.77;;;3.03;;
20245;SDS011;10281;54.406;18.556;2023-02-01T12:05:41;6.47;;;2.70;;
20245;SDS011;10281;54.406;18.556;2023-02-01T12:13:46;8.10;;;4.10;;
20245;SDS011;10281;54.406;18.556;2023-02-01T12:16:13;4.00;;;2.13;;
20245;SDS011;10281;54.406;18.556;2023-02-01T12:18:54;5.83;;;3.27;;
20245;SDS011;10281;54.406;18.556;2023-02-01T12:21:24;4.47;;;2.17;;
20245;SDS011;10281;54.406;18.556;2023-02-01T12:29:31;2.73;;;1.60;;
20245;SDS011;10281;54.406;18.556;2023-02-01T12:31:50;2.77;;;1.60;;
20245;SDS011;10281;54.406;18.556;2023-02-01T12:37:28;2.47;;;1.53;;
20245;SDS011;10281;54.406;18.556;2023-02-01T12:39:56;4.10;;;2.20;;
20245;SDS011;10281;54.406;18.556;2023-02-01T12:42:26;3.40;;;2.10;;
20245;SDS011;10281;54.406;18.556;2023-02-01T12:44:55;6.17;;;2.33;;
20245;SDS011;10281;54.406;18.556;2023-02-01T12:50:18;4.30;;;1.70;;
20245;SDS011;10281;54.406;18.556;2023-02-01T12:52:48;3.30;;;1.90;;
20245;SDS011;10281;54.406;18.556;2023-02-01T12:57:51;5.10;;;1.67;;
20245;SDS011;10281;54.406;18.556;2023-02-01T13:00:27;6.53;;;2.50;;
20245;SDS011;10281;54.406;18.556;2023-02-01T13:03:21;5.43;;;2.63;;
20245;SDS011;10281;54.406;18.556;2023-02-01T13:05:47;3.80;;;2.00;;
20245;SDS011;10281;54.406;18.556;2023-02-01T13:08:17;6.83;;;2.70;;
20245;SDS011;10281;54.406;18.556;2023-02-01T13:10:47;7.50;;;3.00;;
20245;SDS011;10281;54.406;18.556;2023-02-01T13:13:22;4.80;;;2.30;;
20245;SDS011;10281;54.406;18.556;2023-02-01T13:15:58;5.00;;;1.77;;
20245;SDS011;10281;54.406;18.556;2023-02-01T13:18:32;3.90;;;1.50;;
20245;SDS011;10281;54.406;18.556;2023-02-01T13:21:01;4.03;;;1.70;;
20245;SDS011;10281;54.406;18.556;2023-02-01T13:23:45;8.37;;;2.53;;
20245;SDS011;10281;54.406;18.556;2023-02-01T13:26:13;5.20;;;1.80;;
20245;SDS011;10281;54.406;18.556;2023-02-01T13:28:41;8.37;;;2.40;;
20245;SDS011;10281;54.406;18.556;2023-02-01T13:31:26;8.97;;;2.90;;
20245;SDS011;10281;54.406;18.556;2023-02-01T13:36:26;8.57;;;2.87;;
20245;SDS011;10281;54.406;18.556;2023-02-01T13:39:02;6.60;;;2.80;;
20245;SDS011;10281;54.406;18.556;2023-02-01T13:41:32;8.07;;;3.07;;
20245;SDS011;10281;54.406;18.556;2023-02-01T13:44:05;9.57;;;4.03;;
20245;SDS011;10281;54.406;18.556;2023-02-01T13:46:41;8.63;;;2.77;;
20245;SDS011;10281;54.406;18.556;2023-02-01T13:49:15;11.03;;;4.77;;
20245;SDS011;10281;54.406;18.556;2023-02-01T13:51:42;9.33;;;3.27;;
20245;SDS011;10281;54.406;18.556;2023-02-01T13:56:42;10.07;;;4.20;;
20245;SDS011;10281;54.406;18.556;2023-02-01T14:01:42;11.43;;;5.47;;
20245;SDS011;10281;54.406;18.556;2023-02-01T14:04:45;12.80;;;4.10;;
20245;SDS011;10281;54.406;18.556;2023-02-01T14:06:40;11.37;;;3.90;;
20245;SDS011;10281;54.406;18.556;2023-02-01T14:09:13;9.90;;;2.97;;
20245;SDS011;10281;54.406;18.556;2023-02-01T14:11:44;14.80;;;4.03;;
20245;SDS011;10281;54.406;18.556;2023-02-01T14:19:40;9.67;;;3.73;;
20245;SDS011;10281;54.406;18.556;2023-02-01T14:24:39;10.40;;;4.20;;
20245;SDS011;10281;54.406;18.556;2023-02-01T14:27:17;10.93;;;4.03;;
20245;SDS011;10281;54.406;18.556;2023-02-01T14:29:50;11.43;;;4.03;;
20245;SDS011;10281;54.406;18.556;2023-02-01T14:32:19;8.97;;;3.00;;
20245;SDS011;10281;54.406;18.556;2023-02-01T14:34:50;12.87;;;6.50;;
20245;SDS011;10281;54.406;18.556;2023-02-01T14:37:28;11.57;;;3.17;;
20245;SDS011;10281;54.406;18.556;2023-02-01T14:39:57;9.90;;;3.20;;
20245;SDS011;10281;54.406;18.556;2023-02-01T14:42:29;12.87;;;5.40;;
20245;SDS011;10281;54.406;18.556;2023-02-01T14:47:46;15.07;;;6.90;;
20245;SDS011;10281;54.406;18.556;2023-02-01T14:52:47;11.13;;;4.20;;
20245;SDS011;10281;54.406;18.556;2023-02-01T14:55:25;12.80;;;5.60;;
20245;SDS011;10281;54.406;18.556;2023-02-01T14:57:51;6.47;;;3.10;;
20245;SDS011;10281;54.406;18.556;2023-02-01T15:00:23;7.93;;;3.70;;
20245;SDS011;10281;54.406;18.556;2023-02-01T15:02:50;9.73;;;3.60;;
20245;SDS011;10281;54.406;18.556;2023-02-01T15:05:22;5.57;;;3.20;;
20245;SDS011;10281;54.406;18.556;2023-02-01T15:07:50;8.27;;;4.03;;
20245;SDS011;10281;54.406;18.556;2023-02-01T15:10:18;7.27;;;3.90;;
20245;SDS011;10281;54.406;18.556;2023-02-01T15:12:45;11.37;;;5.33;;
20245;SDS011;10281;54.406;18.556;2023-02-01T15:15:17;10.27;;;5.13;;
20245;SDS011;10281;54.406;18.556;2023-02-01T15:17:59;11.23;;;5.13;;
20245;SDS011;10281;54.406;18.556;2023-02-01T15:20:28;7.57;;;4.77;;
20245;SDS011;10281;54.406;18.556;2023-02-01T15:22:59;8.97;;;4.93;;
20245;SDS011;10281;54.406;18.556;2023-02-01T15:25:27;6.87;;;3.40;;
20245;SDS011;10281;54.406;18.556;2023-02-01T15:27:56;16.27;;;6.23;;
20245;SDS011;10281;54.406;18.556;2023-02-01T15:30:25;8.47;;;3.83;;
20245;SDS011;10281;54.406;18.556;2023-02-01T15:32:58;5.63;;;3.00;;
20245;SDS011;10281;54.406;18.556;2023-02-01T15:37:53;18.37;;;4.20;;
20245;SDS011;10281;54.406;18.556;2023-02-01T15:40:24;7.10;;;2.77;;
20245;SDS011;10281;54.406;18.556;2023-02-01T15:42:52;5.60;;;2.23;;
20245;SDS011;10281;54.406;18.556;2023-02-01T15:45:20;8.50;;;3.20;;
20245;SDS011;10281;54.406;18.556;2023-02-01T15:47:47;6.57;;;2.50;;
20245;SDS011;10281;54.406;18.556;2023-02-01T15:50:15;7.40;;;3.27;;
20245;SDS011;10281;54.406;18.556;2023-02-01T15:52:42;9.37;;;3.00;;